createdAt,value
2023-08-15T00:00:13.346Z,1016.00
2023-08-15T00:01:13.796Z,1016.00
2023-08-15T00:02:13.875Z,1016.00
2023-08-15T00:03:14.012Z,1015.96
2023-08-15T00:04:12.950Z,1015.96
2023-08-15T00:05:12.862Z,1015.93
2023-08-15T00:06:13.785Z,1015.96
2023-08-15T00:07:14.003Z,1015.98
2023-08-15T00:08:13.190Z,1015.99
2023-08-15T00:09:13.020Z,1015.96
2023-08-15T00:10:13.147Z,1015.91
2023-08-15T00:11:13.016Z,1015.85
2023-08-15T00:12:13.230Z,1015.88
2023-08-15T00:13:13.251Z,1015.86
2023-08-15T00:14:13.136Z,1015.88
2023-08-15T00:15:13.262Z,1015.83
2023-08-15T00:16:13.270Z,1015.85
2023-08-15T00:17:13.226Z,1015.84
2023-08-15T00:18:13.217Z,1015.83
2023-08-15T00:19:13.346Z,1015.86
2023-08-15T00:20:13.173Z,1015.84
2023-08-15T00:21:13.179Z,1015.85
2023-08-15T00:22:12.961Z,1015.82
2023-08-15T00:23:12.888Z,1015.78
2023-08-15T00:24:12.935Z,1015.79
2023-08-15T00:25:12.891Z,1015.75
2023-08-15T00:26:12.930Z,1015.74
2023-08-15T00:27:12.710Z,1015.71
2023-08-15T00:28:13.811Z,1015.67
2023-08-15T00:29:13.772Z,1015.65
2023-08-15T00:30:13.798Z,1015.63
2023-08-15T00:31:13.716Z,1015.62
2023-08-15T00:32:13.747Z,1015.61
2023-08-15T00:33:13.767Z,1015.61
2023-08-15T00:34:13.812Z,1015.61
2023-08-15T00:35:13.856Z,1015.58
2023-08-15T00:36:13.703Z,1015.54
2023-08-15T00:37:13.530Z,1015.52
2023-08-15T00:38:13.381Z,1015.47
2023-08-15T00:39:13.340Z,1015.48
2023-08-15T00:40:13.309Z,1015.51
2023-08-15T00:41:13.358Z,1015.51
2023-08-15T00:42:13.384Z,1015.53
2023-08-15T00:43:13.385Z,1015.53
2023-08-15T00:44:13.422Z,1015.54
2023-08-15T00:45:13.527Z,1015.58
2023-08-15T00:46:13.699Z,1015.58
2023-08-15T00:47:13.634Z,1015.63
2023-08-15T00:48:13.394Z,1015.61
2023-08-15T00:49:13.371Z,1015.62
2023-08-15T00:50:14.079Z,1015.62
2023-08-15T00:51:13.223Z,1015.62
2023-08-15T00:52:13.181Z,1015.64
2023-08-15T00:53:13.134Z,1015.63
2023-08-15T00:54:12.951Z,1015.59
2023-08-15T00:55:13.003Z,1015.61
2023-08-15T00:56:12.946Z,1015.59
2023-08-15T00:57:12.722Z,1015.57
2023-08-15T00:58:13.505Z,1015.55
2023-08-15T00:59:13.304Z,1015.54
2023-08-15T01:00:13.363Z,1015.52
2023-08-15T01:01:13.279Z,1015.52
2023-08-15T01:02:13.271Z,1015.54
2023-08-15T01:03:13.463Z,1015.51
2023-08-15T01:04:13.566Z,1015.52
2023-08-15T01:05:13.639Z,1015.50
2023-08-15T01:06:13.500Z,1015.45
2023-08-15T01:07:13.706Z,1015.49
2023-08-15T01:08:13.834Z,1015.46
2023-08-15T01:09:13.815Z,1015.44
2023-08-15T01:10:13.786Z,1015.43
2023-08-15T01:11:13.724Z,1015.38
2023-08-15T01:12:13.730Z,1015.39
2023-08-15T01:13:13.666Z,1015.40
2023-08-15T01:14:13.700Z,1015.40
2023-08-15T01:15:13.842Z,1015.41
2023-08-15T01:16:13.904Z,1015.44
2023-08-15T01:17:13.021Z,1015.42
2023-08-15T01:18:13.242Z,1015.42
2023-08-15T01:19:13.212Z,1015.47
2023-08-15T01:20:12.906Z,1015.45
2023-08-15T01:21:12.823Z,1015.43
2023-08-15T01:22:13.781Z,1015.44
2023-08-15T01:23:13.663Z,1015.41
2023-08-15T01:24:14.124Z,1015.35
2023-08-15T01:25:13.211Z,1015.36
2023-08-15T01:26:12.941Z,1015.32
2023-08-15T01:27:13.092Z,1015.31
2023-08-15T01:28:13.231Z,1015.34
2023-08-15T01:29:13.108Z,1015.35
2023-08-15T01:30:12.961Z,1015.35
2023-08-15T01:31:14.632Z,1015.34
2023-08-15T01:32:13.633Z,1015.33
2023-08-15T01:33:13.708Z,1015.33
2023-08-15T01:34:13.684Z,1015.33
2023-08-15T01:35:13.681Z,1015.30
2023-08-15T01:36:13.961Z,1015.28
2023-08-15T01:37:12.685Z,1015.28
2023-08-15T01:38:13.751Z,1015.30
2023-08-15T01:39:14.088Z,1015.29
2023-08-15T01:40:13.006Z,1015.25
2023-08-15T01:41:13.044Z,1015.23
2023-08-15T01:42:12.912Z,1015.22
2023-08-15T01:43:12.831Z,1015.18
2023-08-15T01:44:13.739Z,1015.19
2023-08-15T01:45:13.649Z,1015.17
2023-08-15T01:46:13.560Z,1015.18
2023-08-15T01:47:13.477Z,1015.15
2023-08-15T01:48:13.334Z,1015.13
2023-08-15T01:49:13.336Z,1015.11
2023-08-15T01:50:18.401Z,1015.06
2023-08-15T01:51:13.714Z,1015.03
2023-08-15T01:52:13.590Z,1015.00
2023-08-15T01:53:13.358Z,1015.03
2023-08-15T01:54:13.321Z,1015.03
2023-08-15T01:55:13.338Z,1015.04
2023-08-15T01:56:13.414Z,1015.07
2023-08-15T01:57:13.144Z,1015.12
2023-08-15T01:58:12.937Z,1015.10
2023-08-15T01:59:13.161Z,1015.12
2023-08-15T02:00:13.352Z,1015.08
2023-08-15T02:01:13.636Z,1015.11
2023-08-15T02:02:13.672Z,1015.10
2023-08-15T02:03:13.657Z,1015.16
2023-08-15T02:04:13.774Z,1015.17
2023-08-15T02:05:13.835Z,1015.17
2023-08-15T02:06:12.931Z,1015.19
2023-08-15T02:07:13.009Z,1015.23
2023-08-15T02:08:13.016Z,1015.26
2023-08-15T02:09:12.798Z,1015.29
2023-08-15T02:10:13.938Z,1015.30
2023-08-15T02:11:13.052Z,1015.34
2023-08-15T02:12:13.129Z,1015.34
2023-08-15T02:13:13.054Z,1015.33
2023-08-15T02:14:13.062Z,1015.33
2023-08-15T02:15:12.950Z,1015.36
2023-08-15T02:16:13.034Z,1015.36
2023-08-15T02:17:13.065Z,1015.38
2023-08-15T02:18:12.886Z,1015.39
2023-08-15T02:19:13.423Z,1015.40
2023-08-15T02:20:13.641Z,1015.40
2023-08-15T02:21:13.574Z,1015.40
2023-08-15T02:22:13.678Z,1015.33
2023-08-15T02:23:13.808Z,1015.37
2023-08-15T02:24:13.771Z,1015.33
2023-08-15T02:25:13.600Z,1015.34
2023-08-15T02:26:13.614Z,1015.35
2023-08-15T02:27:13.875Z,1015.35
2023-08-15T02:28:13.788Z,1015.37
2023-08-15T02:29:13.669Z,1015.34
2023-08-15T02:30:13.604Z,1015.36
2023-08-15T02:31:13.687Z,1015.37
2023-08-15T02:32:13.639Z,1015.37
2023-08-15T02:33:13.645Z,1015.33
2023-08-15T02:34:13.790Z,1015.31
2023-08-15T02:35:13.836Z,1015.28
2023-08-15T02:36:13.838Z,1015.27
2023-08-15T02:37:13.732Z,1015.29
2023-08-15T02:38:13.814Z,1015.30
2023-08-15T02:39:13.632Z,1015.30
2023-08-15T02:40:13.539Z,1015.32
2023-08-15T02:41:13.444Z,1015.31
2023-08-15T02:42:13.591Z,1015.32
2023-08-15T02:43:13.777Z,1015.33
2023-08-15T02:44:13.848Z,1015.30
2023-08-15T02:45:13.696Z,1015.29
2023-08-15T02:46:13.593Z,1015.25
2023-08-15T02:47:13.615Z,1015.27
2023-08-15T02:48:13.631Z,1015.29
2023-08-15T02:49:13.513Z,1015.32
2023-08-15T02:50:14.012Z,1015.36
2023-08-15T02:51:12.810Z,1015.40
2023-08-15T02:52:13.852Z,1015.40
2023-08-15T02:53:13.744Z,1015.42
2023-08-15T02:54:13.652Z,1015.36
2023-08-15T02:55:13.477Z,1015.37
2023-08-15T02:56:13.221Z,1015.32
2023-08-15T02:57:13.107Z,1015.30
2023-08-15T02:58:13.165Z,1015.28
2023-08-15T02:59:13.029Z,1015.25
2023-08-15T03:00:12.793Z,1015.22
2023-08-15T03:01:13.605Z,1015.21
2023-08-15T03:02:13.802Z,1015.21
2023-08-15T03:03:12.859Z,1015.17
2023-08-15T03:04:13.205Z,1015.14
2023-08-15T03:05:13.247Z,1015.12
2023-08-15T03:06:13.160Z,1015.06
2023-08-15T03:07:13.234Z,1015.06
2023-08-15T03:08:13.330Z,1015.08
2023-08-15T03:09:13.444Z,1015.09
2023-08-15T03:10:13.468Z,1015.09
2023-08-15T03:11:13.511Z,1015.10
2023-08-15T03:12:13.533Z,1015.07
2023-08-15T03:13:13.510Z,1015.07
2023-08-15T03:14:13.415Z,1015.00
2023-08-15T03:15:13.443Z,1014.94
2023-08-15T03:16:13.527Z,1014.89
2023-08-15T03:17:13.261Z,1014.90
2023-08-15T03:18:13.657Z,1014.95
2023-08-15T03:19:13.728Z,1015.00
2023-08-15T03:20:13.834Z,1015.07
2023-08-15T03:21:13.843Z,1015.16
2023-08-15T03:22:13.786Z,1015.17
2023-08-15T03:23:13.849Z,1015.16
2023-08-15T03:24:13.849Z,1015.12
2023-08-15T03:25:13.898Z,1015.13
2023-08-15T03:26:17.768Z,1015.09
2023-08-15T03:27:13.576Z,1015.09
2023-08-15T03:28:13.360Z,1015.12
2023-08-15T03:29:13.659Z,1015.12
2023-08-15T03:30:13.773Z,1015.13
2023-08-15T03:31:14.083Z,1015.15
2023-08-15T03:32:13.098Z,1015.14
2023-08-15T03:33:13.413Z,1015.19
2023-08-15T03:34:13.248Z,1015.19
2023-08-15T03:35:13.149Z,1015.18
2023-08-15T03:36:13.072Z,1015.22
2023-08-15T03:37:12.989Z,1015.25
2023-08-15T03:38:12.906Z,1015.28
2023-08-15T03:39:13.173Z,1015.24
2023-08-15T03:40:13.574Z,1015.21
2023-08-15T03:41:13.641Z,1015.14
2023-08-15T03:42:13.909Z,1015.15
2023-08-15T03:43:12.790Z,1015.14
2023-08-15T03:44:13.840Z,1015.11
2023-08-15T03:45:14.105Z,1015.13
2023-08-15T03:46:13.278Z,1015.15
2023-08-15T03:47:13.458Z,1015.18
2023-08-15T03:48:13.359Z,1015.19
2023-08-15T03:49:13.316Z,1015.22
2023-08-15T03:50:13.052Z,1015.27
2023-08-15T03:51:19.027Z,1015.30
2023-08-15T03:52:13.582Z,1015.34
2023-08-15T03:53:13.450Z,1015.35
2023-08-15T03:54:13.406Z,1015.40
2023-08-15T03:55:13.323Z,1015.45
2023-08-15T03:56:13.634Z,1015.43
2023-08-15T03:57:13.430Z,1015.41
2023-08-15T03:58:13.198Z,1015.46
2023-08-15T03:59:12.996Z,1015.48
2023-08-15T04:00:12.816Z,1015.50
2023-08-15T04:01:13.547Z,1015.45
2023-08-15T04:02:13.702Z,1015.52
2023-08-15T04:03:13.569Z,1015.52
2023-08-15T04:04:13.450Z,1015.55
2023-08-15T04:05:13.263Z,1015.54
2023-08-15T04:06:13.285Z,1015.57
2023-08-15T04:07:13.198Z,1015.58
2023-08-15T04:08:13.073Z,1015.62
2023-08-15T04:09:12.959Z,1015.60
2023-08-15T04:10:12.887Z,1015.61
2023-08-15T04:11:12.867Z,1015.62
2023-08-15T04:12:13.808Z,1015.67
2023-08-15T04:13:13.707Z,1015.66
2023-08-15T04:14:13.647Z,1015.65
2023-08-15T04:15:13.481Z,1015.66
2023-08-15T04:16:13.723Z,1015.64
2023-08-15T04:17:14.146Z,1015.61
2023-08-15T04:18:13.047Z,1015.64
2023-08-15T04:19:12.891Z,1015.62
2023-08-15T04:20:12.652Z,1015.61
2023-08-15T04:21:13.415Z,1015.62
2023-08-15T04:22:13.243Z,1015.64
2023-08-15T04:23:13.059Z,1015.69
2023-08-15T04:24:13.272Z,1015.74
2023-08-15T04:25:13.175Z,1015.80
2023-08-15T04:26:13.208Z,1015.84
2023-08-15T04:27:13.251Z,1015.81
2023-08-15T04:28:13.449Z,1015.78
2023-08-15T04:29:13.397Z,1015.70
2023-08-15T04:30:13.273Z,1015.67
2023-08-15T04:31:13.307Z,1015.59
2023-08-15T04:32:13.578Z,1015.74
2023-08-15T04:33:13.680Z,1015.79
2023-08-15T04:34:13.521Z,1015.82
2023-08-15T04:35:13.388Z,1015.90
2023-08-15T04:36:13.213Z,1015.97
2023-08-15T04:37:12.991Z,1016.06
2023-08-15T04:38:13.168Z,1016.18
2023-08-15T04:39:13.330Z,1016.19
2023-08-15T04:40:13.555Z,1016.19
2023-08-15T04:41:13.582Z,1016.24
2023-08-15T04:42:14.201Z,1016.28
2023-08-15T04:43:13.134Z,1016.36
2023-08-15T04:44:13.202Z,1016.34
2023-08-15T04:45:13.135Z,1016.44
2023-08-15T04:46:13.081Z,1016.50
2023-08-15T04:47:13.259Z,1016.53
2023-08-15T04:48:13.251Z,1016.56
2023-08-15T04:49:13.350Z,1016.67
2023-08-15T04:50:13.236Z,1016.62
2023-08-15T04:51:13.121Z,1016.69
2023-08-15T04:52:13.488Z,1016.75
2023-08-15T04:53:13.779Z,1016.80
2023-08-15T04:54:13.879Z,1016.75
2023-08-15T04:55:12.809Z,1016.69
2023-08-15T04:56:13.657Z,1016.67
2023-08-15T04:57:13.521Z,1016.70
2023-08-15T04:58:13.406Z,1016.67
2023-08-15T04:59:13.298Z,1016.70
2023-08-15T05:00:13.279Z,1016.67
2023-08-15T05:01:13.238Z,1016.64
2023-08-15T05:02:13.260Z,1016.61
2023-08-15T05:03:13.463Z,1016.63
2023-08-15T05:04:13.359Z,1016.60
2023-08-15T05:05:13.360Z,1016.64
2023-08-15T05:06:13.303Z,1016.70
2023-08-15T05:07:13.153Z,1016.70
2023-08-15T05:08:13.081Z,1016.71
2023-08-15T05:09:13.228Z,1016.66
2023-08-15T05:10:13.142Z,1016.67
2023-08-15T05:11:12.941Z,1016.71
2023-08-15T05:12:12.740Z,1016.74
2023-08-15T05:13:13.589Z,1016.70
2023-08-15T05:14:13.548Z,1016.72
2023-08-15T05:15:13.567Z,1016.69
2023-08-15T05:16:13.443Z,1016.65
2023-08-15T05:17:13.381Z,1016.61
2023-08-15T05:18:13.242Z,1016.65
2023-08-15T05:19:13.204Z,1016.72
2023-08-15T05:20:13.065Z,1016.80
2023-08-15T05:21:13.472Z,1016.82
2023-08-15T05:22:13.480Z,1016.82
2023-08-15T05:23:13.320Z,1016.78
2023-08-15T05:24:13.170Z,1016.74
2023-08-15T05:25:13.057Z,1016.68
2023-08-15T05:26:12.877Z,1016.69
2023-08-15T05:27:13.028Z,1016.69
2023-08-15T05:28:12.854Z,1016.66
2023-08-15T05:29:13.870Z,1016.66
2023-08-15T05:30:12.816Z,1016.63
2023-08-15T05:31:14.055Z,1016.59
2023-08-15T05:32:13.243Z,1016.56
2023-08-15T05:33:13.118Z,1016.50
2023-08-15T05:34:13.017Z,1016.49
2023-08-15T05:35:12.898Z,1016.52
2023-08-15T05:36:12.936Z,1016.56
2023-08-15T05:37:12.916Z,1016.55
2023-08-15T05:38:12.834Z,1016.51
2023-08-15T05:39:13.889Z,1016.53
2023-08-15T05:40:12.775Z,1016.55
2023-08-15T05:41:13.905Z,1016.58
2023-08-15T05:42:12.849Z,1016.61
2023-08-15T05:43:13.618Z,1016.63
2023-08-15T05:44:13.514Z,1016.65
2023-08-15T05:45:13.368Z,1016.65
2023-08-15T05:46:13.215Z,1016.64
2023-08-15T05:47:12.972Z,1016.63
2023-08-15T05:48:12.951Z,1016.66
2023-08-15T05:49:12.713Z,1016.66
2023-08-15T05:50:13.590Z,1016.56
2023-08-15T05:51:13.670Z,1016.59
2023-08-15T05:52:13.754Z,1016.57
2023-08-15T05:53:13.584Z,1016.59
2023-08-15T05:54:13.479Z,1016.60
2023-08-15T05:55:13.274Z,1016.60
2023-08-15T05:56:13.228Z,1016.64
2023-08-15T05:57:13.030Z,1016.63
2023-08-15T05:58:12.798Z,1016.62
2023-08-15T05:59:13.660Z,1016.64
2023-08-15T06:00:13.700Z,1016.61
2023-08-15T06:01:13.967Z,1016.60
2023-08-15T06:02:12.916Z,1016.62
2023-08-15T06:03:13.514Z,1016.63
2023-08-15T06:04:13.508Z,1016.59
2023-08-15T06:05:13.484Z,1016.62
2023-08-15T06:06:13.283Z,1016.62
2023-08-15T06:07:13.305Z,1016.64
2023-08-15T06:08:13.123Z,1016.69
2023-08-15T06:09:13.353Z,1016.73
2023-08-15T06:10:13.195Z,1016.75
2023-08-15T06:11:13.065Z,1016.78
2023-08-15T06:12:12.986Z,1016.84
2023-08-15T06:13:12.840Z,1016.85
2023-08-15T06:14:13.811Z,1016.86
2023-08-15T06:15:13.717Z,1016.87
2023-08-15T06:16:14.184Z,1016.94
2023-08-15T06:17:13.238Z,1016.96
2023-08-15T06:18:13.038Z,1016.93
2023-08-15T06:19:13.110Z,1016.96
2023-08-15T06:20:13.168Z,1016.95
2023-08-15T06:21:13.394Z,1016.96
2023-08-15T06:22:13.541Z,1016.97
2023-08-15T06:23:13.493Z,1017.00
2023-08-15T06:24:13.370Z,1017.06
2023-08-15T06:25:13.166Z,1017.07
2023-08-15T06:26:13.078Z,1017.07
2023-08-15T06:27:13.025Z,1017.14
2023-08-15T06:28:12.805Z,1017.13
2023-08-15T06:29:13.532Z,1017.15
2023-08-15T06:30:13.416Z,1017.15
2023-08-15T06:31:13.293Z,1017.17
2023-08-15T06:32:13.329Z,1017.14
2023-08-15T06:33:13.180Z,1017.13
2023-08-15T06:34:13.202Z,1017.11
2023-08-15T06:35:12.981Z,1017.09
2023-08-15T06:36:13.511Z,1017.10
2023-08-15T06:37:13.474Z,1017.11
2023-08-15T06:38:13.332Z,1017.11
2023-08-15T06:39:13.146Z,1017.11
2023-08-15T06:40:12.952Z,1017.13
2023-08-15T06:41:12.759Z,1017.12
2023-08-15T06:42:13.570Z,1017.08
2023-08-15T06:43:13.585Z,1017.06
2023-08-15T06:44:13.505Z,1017.01
2023-08-15T06:45:13.730Z,1017.02
2023-08-15T06:46:13.633Z,1016.96
2023-08-15T06:47:13.457Z,1016.99
2023-08-15T06:48:13.248Z,1017.03
2023-08-15T06:49:12.963Z,1017.00
2023-08-15T06:50:12.972Z,1017.03
2023-08-15T06:51:13.148Z,1017.06
2023-08-15T06:52:12.933Z,1017.12
2023-08-15T06:53:12.797Z,1017.16
2023-08-15T06:54:13.785Z,1017.14
2023-08-15T06:55:13.757Z,1017.19
2023-08-15T06:56:13.758Z,1017.21
2023-08-15T06:57:13.679Z,1017.17
2023-08-15T06:58:13.675Z,1017.18
2023-08-15T06:59:13.546Z,1017.24
2023-08-15T07:00:13.751Z,1017.28
2023-08-15T07:01:13.850Z,1017.28
2023-08-15T07:02:13.831Z,1017.23
2023-08-15T07:03:14.052Z,1017.19
2023-08-15T07:04:13.638Z,1017.26
2023-08-15T07:05:13.536Z,1017.21
2023-08-15T07:06:13.725Z,1017.19
2023-08-15T07:07:13.564Z,1017.19
2023-08-15T07:08:13.472Z,1017.17
2023-08-15T07:09:13.866Z,1017.18
2023-08-15T07:10:13.056Z,1017.21
2023-08-15T07:11:13.040Z,1017.22
2023-08-15T07:12:12.892Z,1017.23
2023-08-15T07:13:13.770Z,1017.19
2023-08-15T07:14:13.692Z,1017.16
2023-08-15T07:15:15.275Z,1017.11
2023-08-15T07:16:13.194Z,1017.15
2023-08-15T07:17:13.001Z,1017.16
2023-08-15T07:18:12.944Z,1017.15
2023-08-15T07:19:13.157Z,1017.17
2023-08-15T07:20:13.192Z,1017.17
2023-08-15T07:21:21.282Z,1017.14
2023-08-15T07:22:13.223Z,1017.16
2023-08-15T07:23:13.054Z,1017.13
2023-08-15T07:24:12.893Z,1017.17
2023-08-15T07:25:12.756Z,1017.18
2023-08-15T07:26:13.665Z,1017.22
2023-08-15T07:27:13.615Z,1017.22
2023-08-15T07:28:13.839Z,1017.21
2023-08-15T07:29:13.859Z,1017.19
2023-08-15T07:30:13.877Z,1017.19
2023-08-15T07:31:12.791Z,1017.23
2023-08-15T07:32:13.965Z,1017.21
2023-08-15T07:33:13.127Z,1017.24
2023-08-15T07:34:13.053Z,1017.26
2023-08-15T07:35:12.808Z,1017.30
2023-08-15T07:36:13.735Z,1017.33
2023-08-15T07:37:13.877Z,1017.34
2023-08-15T07:38:12.980Z,1017.36
2023-08-15T07:39:13.027Z,1017.38
2023-08-15T07:40:12.771Z,1017.43
2023-08-15T07:41:13.610Z,1017.43
2023-08-15T07:42:13.611Z,1017.44
2023-08-15T07:43:13.448Z,1017.50
2023-08-15T07:44:13.190Z,1017.52
2023-08-15T07:45:13.039Z,1017.47
2023-08-15T07:46:13.059Z,1017.48
2023-08-15T07:47:12.927Z,1017.45
2023-08-15T07:48:13.085Z,1017.49
2023-08-15T07:49:12.955Z,1017.48
2023-08-15T07:50:12.973Z,1017.46
2023-08-15T07:51:12.912Z,1017.45
2023-08-15T07:52:18.144Z,1017.42
2023-08-15T07:53:12.891Z,1017.43
2023-08-15T07:54:12.665Z,1017.47
2023-08-15T07:55:13.526Z,1017.50
2023-08-15T07:56:13.325Z,1017.52
2023-08-15T07:57:13.318Z,1017.57
2023-08-15T07:58:13.102Z,1017.61
2023-08-15T07:59:12.995Z,1017.60
2023-08-15T08:00:12.834Z,1017.61
2023-08-15T08:01:13.755Z,1017.68
2023-08-15T08:02:14.225Z,1017.77
2023-08-15T08:03:13.128Z,1017.77
2023-08-15T08:04:12.936Z,1017.79
2023-08-15T08:05:12.880Z,1017.79
2023-08-15T08:06:31.858Z,1017.75
2023-08-15T08:07:13.512Z,1017.73
2023-08-15T08:08:13.427Z,1017.75
2023-08-15T08:09:13.399Z,1017.74
2023-08-15T08:10:13.206Z,1017.73
2023-08-15T08:11:13.278Z,1017.78
2023-08-15T08:12:13.151Z,1017.76
2023-08-15T08:13:13.004Z,1017.75
2023-08-15T08:14:12.806Z,1017.77
2023-08-15T08:15:13.526Z,1017.82
2023-08-15T08:16:13.336Z,1017.85
2023-08-15T08:17:13.199Z,1017.86
2023-08-15T08:18:13.351Z,1017.90
2023-08-15T08:19:13.246Z,1017.90
2023-08-15T08:20:13.142Z,1017.88
2023-08-15T08:21:13.007Z,1017.87
2023-08-15T08:22:13.131Z,1017.86
2023-08-15T08:23:13.057Z,1017.89
2023-08-15T08:24:12.932Z,1017.88
2023-08-15T08:25:12.971Z,1017.91
2023-08-15T08:26:12.830Z,1017.92
2023-08-15T08:27:14.061Z,1017.96
2023-08-15T08:28:13.049Z,1017.97
2023-08-15T08:29:12.949Z,1017.98
2023-08-15T08:30:49.190Z,1017.98
2023-08-15T08:31:01.120Z,1017.98
2023-08-15T08:31:13.121Z,1017.99
2023-08-15T08:32:13.125Z,1017.99
2023-08-15T08:33:13.131Z,1017.99
2023-08-15T08:34:13.112Z,1018.05
2023-08-15T08:35:13.124Z,1018.05
2023-08-15T08:36:12.988Z,1018.08
2023-08-15T08:37:12.909Z,1018.09
2023-08-15T08:38:12.894Z,1018.10
2023-08-15T08:39:25.472Z,1018.09
2023-08-15T08:40:12.921Z,1018.14
2023-08-15T08:41:13.054Z,1018.17
2023-08-15T08:42:13.327Z,1018.15
2023-08-15T08:43:13.302Z,1018.14
2023-08-15T08:44:13.151Z,1018.12
2023-08-15T08:45:13.057Z,1018.06
2023-08-15T08:46:13.153Z,1018.09
2023-08-15T08:47:13.282Z,1018.08
2023-08-15T08:48:13.235Z,1018.06
2023-08-15T08:49:13.431Z,1018.08
2023-08-15T08:50:13.440Z,1018.09
2023-08-15T08:51:13.472Z,1018.13
2023-08-15T08:52:13.525Z,1018.13
2023-08-15T08:53:13.637Z,1018.11
2023-08-15T08:54:14.361Z,1018.08
2023-08-15T08:55:13.795Z,1018.08
2023-08-15T08:56:13.605Z,1018.07
2023-08-15T08:57:13.901Z,1018.10
2023-08-15T08:58:12.874Z,1018.09
2023-08-15T08:59:12.942Z,1018.09
2023-08-15T09:00:12.887Z,1018.10
2023-08-15T09:01:13.031Z,1018.10
2023-08-15T09:02:12.995Z,1018.13
2023-08-15T09:03:12.986Z,1018.13
2023-08-15T09:04:12.969Z,1018.17
2023-08-15T09:05:12.993Z,1018.15
2023-08-15T09:06:12.870Z,1018.16
2023-08-15T09:07:12.735Z,1018.14
2023-08-15T09:08:13.782Z,1018.18
2023-08-15T09:09:13.749Z,1018.21
2023-08-15T09:10:13.872Z,1018.20
2023-08-15T09:11:13.109Z,1018.19
2023-08-15T09:12:13.195Z,1018.16
2023-08-15T09:13:13.282Z,1018.17
2023-08-15T09:14:13.367Z,1018.22
2023-08-15T09:15:13.247Z,1018.26
2023-08-15T09:16:13.376Z,1018.25
2023-08-15T09:17:13.507Z,1018.26
2023-08-15T09:18:13.415Z,1018.27
2023-08-15T09:19:13.294Z,1018.31
2023-08-15T09:20:13.147Z,1018.31
2023-08-15T09:21:13.213Z,1018.34
2023-08-15T09:22:13.307Z,1018.35
2023-08-15T09:23:13.308Z,1018.34
2023-08-15T09:24:13.041Z,1018.36
2023-08-15T09:25:12.937Z,1018.36
2023-08-15T09:26:12.876Z,1018.32
2023-08-15T09:27:12.923Z,1018.33
2023-08-15T09:28:12.947Z,1018.32
2023-08-15T09:29:12.889Z,1018.30
2023-08-15T09:30:12.980Z,1018.30
2023-08-15T09:31:13.236Z,1018.29
2023-08-15T09:32:13.166Z,1018.28
2023-08-15T09:33:13.218Z,1018.28
2023-08-15T09:34:13.080Z,1018.28
2023-08-15T09:35:12.905Z,1018.30
2023-08-15T09:36:12.765Z,1018.30
2023-08-15T09:37:13.729Z,1018.30
2023-08-15T09:38:13.584Z,1018.28
2023-08-15T09:39:13.652Z,1018.25
2023-08-15T09:40:13.657Z,1018.32
2023-08-15T09:41:13.747Z,1018.33
2023-08-15T09:42:13.823Z,1018.32
2023-08-15T09:43:14.071Z,1018.31
2023-08-15T09:44:13.347Z,1018.34
2023-08-15T09:45:13.530Z,1018.35
2023-08-15T09:46:13.598Z,1018.35
2023-08-15T09:47:13.787Z,1018.37
2023-08-15T09:48:14.135Z,1018.39
2023-08-15T09:49:13.492Z,1018.35
2023-08-15T09:50:13.371Z,1018.39
2023-08-15T09:51:13.384Z,1018.41
2023-08-15T09:52:13.215Z,1018.39
2023-08-15T09:53:13.310Z,1018.37
2023-08-15T09:54:13.197Z,1018.39
2023-08-15T09:55:13.311Z,1018.37
2023-08-15T09:56:13.109Z,1018.40
2023-08-15T09:57:13.286Z,1018.40
2023-08-15T09:58:13.852Z,1018.42
2023-08-15T09:59:12.750Z,1018.42
2023-08-15T10:00:13.774Z,1018.39
2023-08-15T10:01:13.837Z,1018.40
2023-08-15T10:02:12.850Z,1018.43
2023-08-15T10:03:13.972Z,1018.44
2023-08-15T10:04:13.037Z,1018.46
2023-08-15T10:05:13.039Z,1018.48
2023-08-15T10:06:14.276Z,1018.54
2023-08-15T10:07:13.341Z,1018.54
2023-08-15T10:08:13.031Z,1018.58
2023-08-15T10:09:13.264Z,1018.61
2023-08-15T10:10:13.260Z,1018.62
2023-08-15T10:11:13.350Z,1018.66
2023-08-15T10:12:13.339Z,1018.65
2023-08-15T10:13:13.393Z,1018.61
2023-08-15T10:14:13.357Z,1018.62
2023-08-15T10:15:13.316Z,1018.61
2023-08-15T10:16:13.382Z,1018.60
2023-08-15T10:17:13.527Z,1018.63
2023-08-15T10:18:14.233Z,1018.61
2023-08-15T10:19:13.064Z,1018.62
2023-08-15T10:20:12.989Z,1018.64
2023-08-15T10:21:12.964Z,1018.63
2023-08-15T10:22:13.098Z,1018.67
2023-08-15T10:23:13.061Z,1018.68
2023-08-15T10:24:12.940Z,1018.73
2023-08-15T10:25:13.137Z,1018.68
2023-08-15T10:26:13.092Z,1018.69
2023-08-15T10:27:13.648Z,1018.73
2023-08-15T10:28:13.763Z,1018.75
2023-08-15T10:29:13.589Z,1018.76
2023-08-15T10:30:14.156Z,1018.77
2023-08-15T10:31:13.845Z,1018.78
2023-08-15T10:32:13.912Z,1018.77
2023-08-15T10:33:13.044Z,1018.78
2023-08-15T10:34:13.013Z,1018.78
2023-08-15T10:35:12.867Z,1018.74
2023-08-15T10:36:12.868Z,1018.77
2023-08-15T10:37:12.772Z,1018.70
2023-08-15T10:38:13.863Z,1018.70
2023-08-15T10:39:17.915Z,1018.70
2023-08-15T10:40:12.968Z,1018.65
2023-08-15T10:41:12.701Z,1018.71
2023-08-15T10:42:13.650Z,1018.69
2023-08-15T10:43:13.734Z,1018.72
2023-08-15T10:44:13.642Z,1018.75
2023-08-15T10:45:13.806Z,1018.69
2023-08-15T10:46:13.841Z,1018.73
2023-08-15T10:47:12.773Z,1018.72
2023-08-15T10:48:13.896Z,1018.72
2023-08-15T10:49:12.807Z,1018.69
2023-08-15T10:50:19.345Z,1018.71
2023-08-15T10:51:13.437Z,1018.73
2023-08-15T10:52:13.380Z,1018.76
2023-08-15T10:53:13.266Z,1018.79
2023-08-15T10:54:13.205Z,1018.78
2023-08-15T10:55:13.262Z,1018.80
2023-08-15T10:56:13.210Z,1018.81
2023-08-15T10:57:13.043Z,1018.82
2023-08-15T10:58:12.777Z,1018.79
2023-08-15T10:59:13.881Z,1018.78
2023-08-15T11:00:12.838Z,1018.76
2023-08-15T11:01:13.943Z,1018.79
2023-08-15T11:02:12.858Z,1018.84
2023-08-15T11:03:13.777Z,1018.81
2023-08-15T11:04:13.703Z,1018.79
2023-08-15T11:05:13.790Z,1018.78
2023-08-15T11:06:13.814Z,1018.79
2023-08-15T11:07:13.642Z,1018.80
2023-08-15T11:08:13.686Z,1018.79
2023-08-15T11:09:13.566Z,1018.83
2023-08-15T11:10:13.632Z,1018.83
2023-08-15T11:11:13.515Z,1018.85
2023-08-15T11:12:13.448Z,1018.86
2023-08-15T11:13:13.351Z,1018.79
2023-08-15T11:14:13.409Z,1018.80
2023-08-15T11:15:13.437Z,1018.86
2023-08-15T11:16:13.474Z,1018.79
2023-08-15T11:17:13.600Z,1018.86
2023-08-15T11:18:13.517Z,1018.87
2023-08-15T11:19:13.389Z,1018.87
2023-08-15T11:20:13.149Z,1018.88
2023-08-15T11:21:13.327Z,1018.88
2023-08-15T11:22:13.492Z,1018.86
2023-08-15T11:23:13.567Z,1018.88
2023-08-15T11:24:13.327Z,1018.88
2023-08-15T11:25:13.141Z,1018.88
2023-08-15T11:26:13.148Z,1018.93
2023-08-15T11:27:13.241Z,1018.89
2023-08-15T11:28:13.102Z,1018.93
2023-08-15T11:29:13.074Z,1018.94
2023-08-15T11:30:13.174Z,1018.98
2023-08-15T11:32:13.240Z,1018.97
2023-08-15T11:33:13.282Z,1018.95
2023-08-15T11:34:13.385Z,1018.95
2023-08-15T11:35:13.496Z,1018.96
2023-08-15T11:36:13.414Z,1018.96
2023-08-15T11:37:13.286Z,1018.98
2023-08-15T11:38:13.325Z,1018.99
2023-08-15T11:39:13.276Z,1019.05
2023-08-15T11:40:13.380Z,1019.05
2023-08-15T11:41:13.321Z,1019.03
2023-08-15T11:42:13.216Z,1019.05
2023-08-15T11:43:13.087Z,1019.09
2023-08-15T11:44:12.999Z,1019.10
2023-08-15T11:45:12.971Z,1019.11
2023-08-15T11:46:12.960Z,1019.08
2023-08-15T11:47:12.903Z,1019.07
2023-08-15T11:48:19.587Z,1019.10
2023-08-15T11:49:13.552Z,1019.15
2023-08-15T11:50:13.421Z,1019.13
2023-08-15T11:51:13.512Z,1019.17
2023-08-15T11:52:13.401Z,1019.16
2023-08-15T11:53:13.313Z,1019.15
2023-08-15T11:54:13.228Z,1019.15
2023-08-15T11:55:13.078Z,1019.13
2023-08-15T11:56:13.304Z,1019.12
2023-08-15T11:57:13.233Z,1019.17
2023-08-15T11:58:13.183Z,1019.20
2023-08-15T11:59:12.993Z,1019.18
2023-08-15T12:00:13.014Z,1019.17
2023-08-15T12:01:13.072Z,1019.22
2023-08-15T12:02:13.184Z,1019.18
2023-08-15T12:03:13.317Z,1019.18
2023-08-15T12:04:13.471Z,1019.15
2023-08-15T12:05:13.440Z,1019.15